Time;durP1;ratioP1;P1;durP2;ratioP2;P2;SDS_P1;SDS_P2;PMS_P1;PMS_P2;Temp;Humidity;BMP_temperature;BMP_pressure;BME280_temperature;BME280_humidity;BME280_pressure;Samples;Min_cycle;Max_cycle;Signal;HPM_P1;HPM_P2
2023/11/19 00:01:47;;;;;;;0.00;0.00;;;22.20;47.60;;;;;;5051538;28;20234;-57
2023/11/19 00:04:19;;;;;;;0.00;0.00;;;22.20;47.60;;;;;;5051594;28;20202;-44
2023/11/19 00:06:50;;;;;;;0.00;0.00;;;22.20;47.60;;;;;;5051490;28;20203;-47
2023/11/19 00:09:20;;;;;;;0.00;0.00;;;22.20;47.60;;;;;;5051621;28;20683;-46
2023/11/19 00:11:51;;;;;;;0.00;0.00;;;22.30;47.70;;;;;;5063304;28;20206;-50
2023/11/19 00:14:22;;;;;;;0.00;0.00;;;22.30;47.70;;;;;;5071828;28;20194;-57
2023/11/19 00:16:53;;;;;;;0.00;0.00;;;22.30;47.60;;;;;;5069971;28;20602;-48
2023/11/19 00:19:26;;;;;;;0.00;0.00;;;22.40;47.60;;;;;;5070580;28;20248;-56
2023/11/19 00:22:02;;;;;;;0.00;0.00;;;22.40;47.60;;;;;;5072106;28;20313;-44
2023/11/19 00:24:33;;;;;;;0.00;0.00;;;22.50;47.60;;;;;;5071403;28;20213;-52
2023/11/19 00:27:04;;;;;;;0.00;0.00;;;22.50;47.50;;;;;;5071149;28;20205;-54
2023/11/19 00:29:34;;;;;;;0.00;0.00;;;22.50;47.50;;;;;;5071574;28;20202;-55
2023/11/19 00:32:05;;;;;;;0.00;0.00;;;22.60;47.50;;;;;;5071462;28;20198;-58
2023/11/19 00:34:37;;;;;;;0.00;0.00;;;22.60;47.40;;;;;;5071171;28;20646;-57
2023/11/19 00:37:09;;;;;;;0.00;0.00;;;22.60;47.40;;;;;;5071112;28;20245;-58
2023/11/19 00:39:39;;;;;;;0.00;0.00;;;22.70;47.40;;;;;;5071135;28;20760;-57
2023/11/19 00:42:11;;;;;;;0.00;0.00;;;22.70;47.40;;;;;;5071403;28;20230;-57
2023/11/19 00:44:41;;;;;;;0.00;0.00;;;22.70;47.40;;;;;;5071164;28;20657;-55
2023/11/19 00:47:12;;;;;;;0.00;0.00;;;22.70;47.40;;;;;;5070875;28;20190;-56
2023/11/19 00:49:44;;;;;;;0.00;0.00;;;22.80;47.50;;;;;;5063212;28;20179;-57
2023/11/19 00:52:15;;;;;;;0.08;0.08;;;22.80;47.50;;;;;;5050719;28;20624;-55
2023/11/19 00:54:46;;;;;;;0.00;0.00;;;22.90;47.50;;;;;;5050590;28;20195;-56
2023/11/19 00:57:16;;;;;;;0.00;0.00;;;22.90;47.50;;;;;;5050467;28;20584;-50
2023/11/19 00:59:47;;;;;;;0.00;0.00;;;22.90;47.60;;;;;;5051172;28;20203;-58
2023/11/19 01:02:18;;;;;;;0.00;0.00;;;22.90;47.60;;;;;;5050857;28;20226;-56
2023/11/19 01:04:50;;;;;;;0.00;0.00;;;22.90;47.50;;;;;;5050871;28;20187;-57
2023/11/19 01:07:21;;;;;;;0.00;0.00;;;23.00;47.50;;;;;;5067929;28;20218;-48
2023/11/19 01:09:52;;;;;;;0.00;0.00;;;23.00;47.40;;;;;;5071018;28;20238;-52
2023/11/19 01:12:23;;;;;;;0.00;0.00;;;23.00;47.40;;;;;;5069382;28;20231;-51
2023/11/19 01:14:55;;;;;;;0.00;0.00;;;23.10;47.50;;;;;;5051681;28;20274;-59
2023/11/19 01:17:27;;;;;;;0.00;0.00;;;23.10;47.40;;;;;;5050946;28;20285;-55
2023/11/19 01:20:00;;;;;;;0.00;0.00;;;23.10;47.40;;;;;;5051087;28;20257;-57
2023/11/19 01:22:30;;;;;;;0.00;0.00;;;23.20;47.50;;;;;;5050761;28;20917;-54
2023/11/19 01:25:01;;;;;;;0.00;0.00;;;23.20;47.40;;;;;;5050869;28;20195;-54
2023/11/19 01:27:31;;;;;;;0.05;0.05;;;23.30;47.40;;;;;;5050904;28;20687;-50
2023/11/19 01:30:04;;;;;;;0.00;0.00;;;23.30;47.50;;;;;;5051347;28;20200;-57
2023/11/19 01:32:35;;;;;;;0.00;0.00;;;23.30;47.40;;;;;;5054327;28;20528;-56
2023/11/19 01:35:09;;;;;;;0.03;0.03;;;23.40;47.40;;;;;;5054402;28;20196;-57
2023/11/19 01:37:39;;;;;;;0.00;0.00;;;23.40;47.40;;;;;;5054283;28;20706;-53
2023/11/19 01:40:11;;;;;;;0.00;0.00;;;23.40;47.50;;;;;;5054147;28;20199;-57
2023/11/19 01:42:42;;;;;;;0.00;0.00;;;23.40;47.50;;;;;;5072647;28;20580;-56
2023/11/19 01:45:27;;;;;;;0.00;0.00;;;23.40;47.60;;;;;;5068197;28;20659;-55
2023/11/19 01:47:58;;;;;;;0.00;0.00;;;23.40;47.60;;;;;;5060118;28;20702;-57
2023/11/19 01:50:31;;;;;;;0.00;0.00;;;23.50;47.70;;;;;;5074011;28;20575;-54
2023/11/19 01:53:02;;;;;;;0.00;0.00;;;23.50;47.60;;;;;;5073939;28;20191;-52
2023/11/19 01:55:33;;;;;;;0.00;0.00;;;23.50;47.50;;;;;;5073870;28;20194;-57
2023/11/19 01:58:04;;;;;;;0.00;0.00;;;23.60;47.40;;;;;;5073729;28;20218;-58
2023/11/19 02:00:35;;;;;;;0.00;0.00;;;23.60;47.30;;;;;;5073683;28;20234;-52
2023/11/19 02:03:06;;;;;;;0.00;0.00;;;23.60;47.30;;;;;;5073702;28;20534;-49
2023/11/19 02:05:39;;;;;;;0.00;0.00;;;23.70;47.30;;;;;;5073730;28;20191;-55
2023/11/19 02:08:10;;;;;;;0.00;0.00;;;23.70;47.30;;;;;;5073739;28;20211;-52
2023/11/19 02:10:41;;;;;;;0.00;0.00;;;23.70;47.20;;;;;;5073792;28;20291;-56
2023/11/19 02:13:13;;;;;;;0.00;0.00;;;23.80;47.30;;;;;;5072029;28;21115;-52
2023/11/19 02:15:44;;;;;;;0.00;0.00;;;23.80;47.20;;;;;;5073889;28;20563;-57
2023/11/19 02:18:32;;;;;;;0.00;0.00;;;23.80;47.20;;;;;;5073670;28;20221;-57
2023/11/19 02:21:05;;;;;;;0.10;0.10;;;23.80;47.20;;;;;;5073969;28;20217;-49
2023/11/19 02:23:35;;;;;;;0.00;0.00;;;23.90;47.20;;;;;;5073583;28;20223;-51
2023/11/19 02:26:17;;;;;;;0.00;0.00;;;23.90;47.20;;;;;;5073544;28;20206;-46
2023/11/19 02:28:50;;;;;;;0.00;0.00;;;23.90;47.20;;;;;;5073385;28;20742;-47
2023/11/19 02:31:21;;;;;;;0.00;0.00;;;24.00;47.20;;;;;;5067463;28;20797;-57
2023/11/19 02:33:51;;;;;;;0.00;0.00;;;24.00;47.20;;;;;;5060667;28;20286;-49
2023/11/19 02:36:22;;;;;;;0.00;0.00;;;24.00;47.10;;;;;;5052811;28;20199;-46
2023/11/19 02:38:53;;;;;;;0.00;0.00;;;24.00;47.10;;;;;;5051662;28;20683;-47
2023/11/19 02:41:24;;;;;;;0.00;0.00;;;24.00;47.00;;;;;;5059926;28;20546;-53
2023/11/19 02:43:56;;;;;;;0.00;0.00;;;24.10;46.90;;;;;;5068130;28;20247;-44
2023/11/19 02:46:27;;;;;;;0.00;0.00;;;24.10;46.90;;;;;;5061804;28;20195;-45
2023/11/19 02:48:58;;;;;;;0.00;0.00;;;24.10;46.90;;;;;;5059605;28;20643;-50
2023/11/19 02:51:30;;;;;;;0.00;0.00;;;24.20;46.90;;;;;;5072571;28;20262;-49
2023/11/19 02:54:00;;;;;;;0.00;0.00;;;24.20;46.80;;;;;;5071412;28;20222;-51
2023/11/19 02:56:34;;;;;;;0.00;0.00;;;24.20;46.80;;;;;;5072427;28;20198;-49
2023/11/19 02:59:08;;;;;;;0.00;0.00;;;24.30;46.80;;;;;;5067750;28;20272;-50
2023/11/19 03:01:43;;;;;;;0.00;0.00;;;24.30;46.80;;;;;;5052225;28;20191;-52
2023/11/19 03:04:16;;;;;;;0.00;0.00;;;24.30;46.80;;;;;;5051139;28;20223;-56
2023/11/19 03:06:47;;;;;;;0.00;0.00;;;24.30;46.80;;;;;;5054514;28;20278;-51
2023/11/19 03:09:18;;;;;;;0.00;0.00;;;24.40;46.80;;;;;;5052522;28;20215;-57
2023/11/19 03:11:48;;;;;;;0.03;0.03;;;24.40;46.80;;;;;;5064045;28;20240;-56
2023/11/19 03:14:22;;;;;;;0.00;0.00;;;24.40;46.70;;;;;;5051634;28;20202;-55
2023/11/19 03:16:53;;;;;;;0.00;0.00;;;24.50;46.80;;;;;;5051226;28;20606;-54
2023/11/19 03:19:24;;;;;;;0.00;0.00;;;24.50;46.80;;;;;;5051714;28;20615;-58
2023/11/19 03:21:54;;;;;;;0.00;0.00;;;24.50;46.70;;;;;;5051042;28;20579;-58
2023/11/19 03:24:25;;;;;;;0.00;0.00;;;24.50;46.70;;;;;;5057654;28;20655;-51
2023/11/19 03:26:56;;;;;;;0.00;0.00;;;24.50;46.70;;;;;;5066660;28;20198;-52
2023/11/19 03:29:28;;;;;;;0.00;0.00;;;24.60;47.30;;;;;;5066347;28;20191;-51
2023/11/19 03:31:59;;;;;;;0.00;0.00;;;24.60;46.60;;;;;;5055940;28;20270;-54
2023/11/19 03:34:29;;;;;;;0.00;0.00;;;24.60;46.70;;;;;;5059510;28;20191;-57
2023/11/19 03:37:00;;;;;;;0.10;0.10;;;24.70;46.60;;;;;;5060664;28;20587;-53
2023/11/19 03:39:32;;;;;;;0.00;0.00;;;24.70;46.60;;;;;;5060317;28;20192;-53
2023/11/19 03:42:03;;;;;;;0.00;0.00;;;24.70;46.50;;;;;;5060279;28;20195;-50
2023/11/19 03:44:35;;;;;;;0.00;0.00;;;24.70;46.50;;;;;;5059736;28;20192;-50
2023/11/19 03:47:06;;;;;;;0.00;0.00;;;24.80;46.40;;;;;;5060927;28;20191;-44
2023/11/19 03:49:37;;;;;;;0.00;0.00;;;24.80;46.40;;;;;;5059234;28;20184;-47
2023/11/19 03:52:09;;;;;;;0.00;0.00;;;24.80;46.40;;;;;;5054598;28;20203;-54
2023/11/19 03:54:39;;;;;;;0.00;0.00;;;24.90;46.40;;;;;;5064357;28;20249;-45
2023/11/19 03:57:11;;;;;;;0.00;0.00;;;24.90;46.30;;;;;;5050957;28;20191;-55
2023/11/19 03:59:44;;;;;;;0.00;0.00;;;24.90;46.30;;;;;;5050357;28;20187;-57
2023/11/19 04:02:15;;;;;;;0.00;0.00;;;24.90;46.30;;;;;;5050306;28;20199;-43
2023/11/19 04:04:45;;;;;;;0.10;0.10;;;25.00;46.30;;;;;;5051422;28;20556;-58
2023/11/19 04:07:16;;;;;;;0.00;0.00;;;25.00;46.30;;;;;;5058980;28;20598;-57
2023/11/19 04:09:47;;;;;;;0.00;0.00;;;25.00;46.20;;;;;;5060080;28;20192;-49
2023/11/19 04:12:17;;;;;;;0.00;0.00;;;25.00;46.20;;;;;;5059999;28;20204;-43
2023/11/19 04:14:50;;;;;;;0.00;0.00;;;25.00;46.20;;;;;;5057789;28;20192;-44
2023/11/19 04:17:20;;;;;;;0.00;0.00;;;25.10;46.30;;;;;;5060613;28;20212;-48
2023/11/19 04:19:51;;;;;;;0.00;0.00;;;25.10;46.30;;;;;;5058816;28;20184;-59
2023/11/19 04:22:22;;;;;;;0.00;0.00;;;25.10;46.30;;;;;;5061852;28;20218;-43
2023/11/19 04:24:52;;;;;;;0.00;0.00;;;25.10;46.30;;;;;;5058978;28;20237;-58
2023/11/19 04:27:23;;;;;;;0.00;0.00;;;25.10;46.30;;;;;;5061426;28;20207;-57
2023/11/19 04:29:56;;;;;;;0.00;0.00;;;25.20;46.30;;;;;;5058235;28;20183;-53
2023/11/19 04:32:27;;;;;;;0.00;0.00;;;25.20;46.20;;;;;;5061069;28;20199;-52
2023/11/19 04:34:57;;;;;;;0.00;0.00;;;25.20;46.20;;;;;;5060100;28;20187;-54
2023/11/19 04:37:28;;;;;;;0.00;0.00;;;25.30;46.10;;;;;;5059913;28;20298;-56
2023/11/19 04:39:59;;;;;;;0.00;0.00;;;25.30;46.10;;;;;;5060418;28;20191;-57
2023/11/19 04:42:30;;;;;;;0.00;0.00;;;25.30;46.00;;;;;;5060275;28;20720;-56
2023/11/19 04:45:02;;;;;;;0.00;0.00;;;25.30;46.10;;;;;;5060663;28;20188;-42
2023/11/19 04:47:33;;;;;;;0.00;0.00;;;25.30;46.00;;;;;;5060053;28;20207;-45
2023/11/19 04:50:04;;;;;;;0.00;0.00;;;25.30;46.00;;;;;;5060672;28;20202;-55
2023/11/19 04:52:35;;;;;;;0.00;0.00;;;25.30;46.00;;;;;;5059293;28;20191;-45
2023/11/19 04:55:06;;;;;;;0.00;0.00;;;25.30;46.00;;;;;;5060015;28;20643;-44
2023/11/19 04:57:36;;;;;;;0.00;0.00;;;25.40;46.00;;;;;;5059586;28;20215;-47
2023/11/19 05:00:11;;;;;;;0.00;0.00;;;25.40;46.10;;;;;;5059959;28;20190;-43
2023/11/19 05:02:41;;;;;;;0.00;0.00;;;25.40;46.00;;;;;;5060537;28;20217;-48
2023/11/19 05:05:12;;;;;;;0.00;0.00;;;25.40;46.10;;;;;;5060288;28;20199;-44
2023/11/19 05:07:43;;;;;;;0.00;0.00;;;25.40;46.00;;;;;;5064760;28;20234;-57
2023/11/19 05:10:13;;;;;;;0.00;0.00;;;25.40;46.00;;;;;;5062638;28;20655;-45
2023/11/19 05:12:44;;;;;;;0.00;0.00;;;25.40;46.00;;;;;;5064311;28;20642;-45
2023/11/19 05:15:17;;;;;;;0.00;0.00;;;25.40;46.00;;;;;;5065074;28;20564;-49
2023/11/19 05:17:47;;;;;;;0.00;0.00;;;25.40;46.00;;;;;;5065385;28;20211;-57
2023/11/19 05:20:18;;;;;;;0.00;0.00;;;25.50;46.10;;;;;;5063861;28;20199;-49
2023/11/19 05:22:49;;;;;;;0.00;0.00;;;25.50;46.10;;;;;;5063423;28;20190;-52
2023/11/19 05:25:19;;;;;;;0.00;0.00;;;25.50;46.10;;;;;;5055723;28;20191;-58
2023/11/19 05:27:50;;;;;;;0.00;0.00;;;25.50;46.00;;;;;;5054444;28;20717;-55
2023/11/19 05:30:23;;;;;;;0.00;0.00;;;25.50;46.00;;;;;;5054422;28;20196;-58
2023/11/19 05:32:53;;;;;;;0.00;0.00;;;25.50;46.00;;;;;;5054415;28;20191;-49
2023/11/19 05:35:24;;;;;;;0.00;0.00;;;25.50;45.90;;;;;;5062575;28;20197;-56
2023/11/19 05:37:55;;;;;;;0.00;0.00;;;25.50;45.90;;;;;;5074502;28;20211;-55
2023/11/19 05:40:26;;;;;;;0.00;0.00;;;25.50;45.90;;;;;;5074182;28;20569;-55
2023/11/19 05:42:59;;;;;;;0.00;0.00;;;25.50;45.90;;;;;;5073660;28;20194;-57
2023/11/19 05:45:32;;;;;;;0.00;0.00;;;25.50;45.90;;;;;;5060410;28;20647;-57
2023/11/19 05:48:04;;;;;;;0.00;0.00;;;25.50;45.80;;;;;;5054437;28;20227;-53
2023/11/19 05:50:35;;;;;;;0.00;0.00;;;25.50;45.90;;;;;;5053448;28;20703;-55
2023/11/19 05:53:08;;;;;;;0.00;0.00;;;25.50;45.90;;;;;;5053700;28;20210;-56
2023/11/19 05:55:46;;;;;;;0.00;0.00;;;25.50;45.90;;;;;;5054357;28;20191;-51
2023/11/19 05:58:16;;;;;;;0.00;0.00;;;25.50;46.00;;;;;;5053986;28;20254;-55
2023/11/19 06:00:51;;;;;;;0.00;0.00;;;25.50;45.90;;;;;;5054108;28;20195;-55
2023/11/19 06:03:21;;;;;;;0.00;0.00;;;25.50;45.90;;;;;;5053780;28;20705;-57
2023/11/19 06:05:52;;;;;;;0.00;0.00;;;25.50;45.80;;;;;;5052837;28;20655;-55
2023/11/19 06:08:23;;;;;;;0.00;0.00;;;25.50;45.70;;;;;;5062461;28;20215;-57
2023/11/19 06:10:56;;;;;;;0.00;0.00;;;25.50;45.80;;;;;;5073947;28;20248;-54
2023/11/19 06:13:26;;;;;;;0.00;0.00;;;25.50;45.80;;;;;;5073353;28;20409;-58
2023/11/19 06:15:59;;;;;;;0.00;0.00;;;25.50;45.90;;;;;;5073328;28;20198;-52
2023/11/19 06:18:31;;;;;;;0.00;0.00;;;25.40;45.80;;;;;;5073044;28;20218;-57
2023/11/19 06:21:01;;;;;;;0.00;0.00;;;25.40;45.90;;;;;;5072800;28;20207;-56
2023/11/19 06:23:32;;;;;;;0.00;0.00;;;25.40;45.90;;;;;;5074085;28;20255;-56
2023/11/19 06:26:03;;;;;;;0.00;0.00;;;25.40;46.00;;;;;;5073133;28;20199;-56
2023/11/19 06:28:34;;;;;;;0.00;0.00;;;25.40;46.00;;;;;;5073256;28;20581;-56
2023/11/19 06:31:07;;;;;;;0.00;0.00;;;25.40;46.00;;;;;;5073505;28;20199;-57
2023/11/19 06:33:38;;;;;;;0.00;0.00;;;25.40;46.00;;;;;;5073478;28;20541;-57
2023/11/19 06:36:09;;;;;;;0.00;0.00;;;25.30;45.90;;;;;;5073077;28;20198;-49
2023/11/19 06:38:40;;;;;;;0.00;0.00;;;25.30;45.90;;;;;;5073922;28;20262;-54
2023/11/19 06:41:12;;;;;;;0.00;0.00;;;25.30;45.90;;;;;;5068806;28;20195;-53
2023/11/19 06:43:43;;;;;;;0.00;0.00;;;25.30;45.90;;;;;;5052705;28;20223;-58
2023/11/19 06:46:21;;;;;;;0.10;0.10;;;25.30;45.80;;;;;;5053114;28;20283;-51
2023/11/19 06:48:51;;;;;;;0.00;0.00;;;25.30;45.90;;;;;;5052726;28;20493;-51
2023/11/19 06:51:22;;;;;;;0.00;0.00;;;25.30;45.80;;;;;;5052273;28;20765;-42
2023/11/19 06:53:53;;;;;;;0.00;0.00;;;25.30;45.80;;;;;;5052841;28;20651;-52
2023/11/19 06:56:24;;;;;;;0.00;0.00;;;25.30;45.90;;;;;;5053240;28;20199;-51
2023/11/19 06:58:55;;;;;;;0.00;0.00;;;25.30;45.80;;;;;;5052737;28;20226;-51
2023/11/19 07:01:28;;;;;;;0.00;0.00;;;25.30;45.80;;;;;;5052511;28;20191;-46
2023/11/19 07:04:02;;;;;;;0.00;0.00;;;25.20;45.80;;;;;;5052459;28;20220;-52
2023/11/19 07:06:32;;;;;;;0.00;0.00;;;25.20;45.80;;;;;;5051723;28;20249;-46
2023/11/19 07:09:09;;;;;;;0.00;0.00;;;25.20;45.80;;;;;;5054561;28;20221;-48
2023/11/19 07:11:40;;;;;;;0.00;0.00;;;25.20;45.80;;;;;;5062849;28;20198;-43
2023/11/19 07:14:11;;;;;;;0.00;0.00;;;25.10;45.70;;;;;;5072076;28;20207;-43
2023/11/19 07:16:43;;;;;;;0.00;0.00;;;25.10;46.40;;;;;;5072085;28;20272;-45
2023/11/19 07:19:14;;;;;;;0.00;0.00;;;25.10;45.70;;;;;;5071598;28;20233;-44
2023/11/19 07:21:45;;;;;;;0.00;0.00;;;25.10;45.70;;;;;;5071801;28;20602;-48
2023/11/19 07:24:16;;;;;;;0.00;0.00;;;25.10;45.80;;;;;;5070692;28;20305;-46
2023/11/19 07:26:48;;;;;;;0.00;0.00;;;25.00;45.70;;;;;;5071880;28;20194;-47
2023/11/19 07:29:19;;;;;;;0.00;0.00;;;25.00;45.70;;;;;;5072131;28;20584;-46
2023/11/19 07:31:52;;;;;;;0.00;0.00;;;25.00;45.80;;;;;;5068909;28;20844;-44
2023/11/19 07:34:22;;;;;;;0.00;0.00;;;25.00;45.80;;;;;;5065551;28;20199;-50
2023/11/19 07:36:54;;;;;;;0.00;0.00;;;25.00;45.90;;;;;;5064535;28;20810;-53
2023/11/19 07:39:24;;;;;;;0.00;0.00;;;24.90;45.90;;;;;;5059863;28;20208;-52
2023/11/19 07:41:55;;;;;;;0.00;0.00;;;24.90;45.90;;;;;;5058277;28;20556;-53
2023/11/19 07:44:26;;;;;;;0.00;0.00;;;24.90;46.50;;;;;;5051047;28;20219;-50
2023/11/19 07:46:58;;;;;;;0.00;0.00;;;24.90;45.90;;;;;;5069336;28;20230;-51
2023/11/19 07:49:30;;;;;;;0.00;0.00;;;24.90;45.90;;;;;;5067234;28;20195;-56
2023/11/19 07:52:02;;;;;;;0.00;0.00;;;24.90;45.90;;;;;;5050744;28;20191;-49
2023/11/19 07:54:33;;;;;;;0.00;0.00;;;24.90;45.90;;;;;;5051043;28;20278;-44
2023/11/19 07:57:04;;;;;;;0.00;0.00;;;24.90;45.90;;;;;;5049826;28;20568;-50
2023/11/19 07:59:34;;;;;;;0.00;0.00;;;24.90;45.90;;;;;;5051304;28;20545;-55
2023/11/19 08:02:07;;;;;;;0.00;0.00;;;24.80;45.90;;;;;;5054794;28;20197;-50
2023/11/19 08:04:39;;;;;;;0.00;0.00;;;24.80;45.90;;;;;;5063942;28;20234;-48
2023/11/19 08:07:10;;;;;;;0.00;0.00;;;24.80;46.00;;;;;;5065043;28;20596;-52
2023/11/19 08:09:41;;;;;;;0.00;0.00;;;24.70;46.00;;;;;;5065100;28;20223;-52
2023/11/19 08:12:13;;;;;;;0.00;0.00;;;24.70;46.00;;;;;;5064566;28;20274;-57
2023/11/19 08:14:44;;;;;;;0.00;0.00;;;24.70;46.00;;;;;;5070093;28;20198;-55
2023/11/19 08:17:17;;;;;;;0.00;0.00;;;24.70;46.00;;;;;;5070323;28;20199;-54
2023/11/19 08:19:47;;;;;;;0.00;0.00;;;24.70;46.10;;;;;;5064533;28;20192;-56
2023/11/19 08:22:18;;;;;;;0.00;0.00;;;24.60;46.00;;;;;;5050790;28;20298;-53
2023/11/19 08:24:49;;;;;;;0.00;0.00;;;24.60;46.10;;;;;;5050967;28;20308;-54
2023/11/19 08:27:26;;;;;;;0.00;0.00;;;24.60;46.10;;;;;;5050003;28;20196;-53
2023/11/19 08:29:58;;;;;;;0.00;0.00;;;24.60;46.10;;;;;;5059110;28;20675;-52
2023/11/19 08:32:31;;;;;;;0.00;0.00;;;24.60;46.10;;;;;;5050449;28;20237;-51
2023/11/19 08:35:01;;;;;;;0.00;0.00;;;24.50;46.00;;;;;;5049212;28;20196;-58
2023/11/19 08:37:32;;;;;;;0.00;0.00;;;24.50;46.10;;;;;;5050647;28;20241;-48
2023/11/19 08:40:04;;;;;;;0.00;0.00;;;24.50;46.60;;;;;;5050979;28;20675;-55
2023/11/19 08:42:34;;;;;;;0.00;0.00;;;24.50;46.10;;;;;;5072130;28;20226;-57
2023/11/19 08:45:05;;;;;;;0.00;0.00;;;24.50;46.10;;;;;;5069341;28;20575;-57
2023/11/19 08:47:38;;;;;;;0.00;0.00;;;24.50;46.10;;;;;;5074406;28;20222;-57
2023/11/19 08:50:10;;;;;;;0.00;0.00;;;24.50;46.20;;;;;;5073473;28;20186;-57
2023/11/19 08:52:40;;;;;;;0.00;0.00;;;24.40;46.10;;;;;;5074662;28;20708;-55
2023/11/19 08:55:13;;;;;;;0.00;0.00;;;24.40;46.10;;;;;;5074299;28;20187;-50
2023/11/19 08:57:44;;;;;;;0.00;0.00;;;24.40;46.20;;;;;;5073722;28;20276;-57
2023/11/19 09:00:16;;;;;;;0.00;0.00;;;24.40;46.20;;;;;;5067194;28;20245;-47
2023/11/19 09:02:48;;;;;;;0.00;0.00;;;24.40;46.20;;;;;;5054426;28;20276;-56
2023/11/19 09:05:19;;;;;;;0.00;0.00;;;24.30;46.20;;;;;;5054581;28;20223;-55
2023/11/19 09:07:50;;;;;;;0.00;0.00;;;24.30;46.20;;;;;;5074181;28;20214;-58
2023/11/19 09:10:21;;;;;;;0.00;0.00;;;24.30;46.20;;;;;;5068206;28;20279;-51
2023/11/19 09:12:51;;;;;;;0.10;0.10;;;24.30;46.20;;;;;;5054327;28;20203;-50
2023/11/19 09:15:22;;;;;;;0.00;0.00;;;24.30;46.30;;;;;;5053102;28;20196;-56
2023/11/19 09:17:54;;;;;;;0.00;0.00;;;24.30;46.30;;;;;;5053455;28;20258;-58
2023/11/19 09:20:25;;;;;;;0.00;0.00;;;24.30;46.30;;;;;;5061392;28;20570;-55
2023/11/19 09:22:56;;;;;;;0.00;0.00;;;24.30;46.30;;;;;;5073893;28;20194;-46
2023/11/19 09:25:26;;;;;;;0.00;0.00;;;24.20;46.20;;;;;;5066564;28;20219;-53
2023/11/19 09:27:57;;;;;;;0.00;0.00;;;24.20;46.20;;;;;;5071052;28;20225;-54
2023/11/19 09:30:29;;;;;;;0.00;0.00;;;24.20;46.20;;;;;;5066100;28;20202;-49
2023/11/19 09:33:02;;;;;;;0.00;0.00;;;24.20;46.20;;;;;;5073341;28;20205;-58
2023/11/19 09:35:32;;;;;;;0.00;0.00;;;24.20;46.30;;;;;;5062768;28;20199;-56
2023/11/19 09:38:05;;;;;;;0.00;0.00;;;24.20;46.30;;;;;;5069835;28;20226;-56
2023/11/19 09:40:35;;;;;;;0.00;0.00;;;24.10;46.20;;;;;;5066774;28;20188;-58
2023/11/19 09:43:06;;;;;;;0.00;0.00;;;24.10;46.30;;;;;;5067126;28;20678;-56
2023/11/19 09:45:47;;;;;;;0.00;0.00;;;24.10;46.30;;;;;;5061008;28;20222;-56
2023/11/19 09:48:20;;;;;;;0.00;0.00;;;24.10;46.30;;;;;;5072920;28;20218;-58
2023/11/19 09:50:53;;;;;;;0.00;0.00;;;24.00;46.30;;;;;;5063127;28;20249;-52
2023/11/19 09:53:24;;;;;;;0.00;0.00;;;24.00;46.30;;;;;;5053383;28;20195;-50
2023/11/19 09:55:55;;;;;;;0.00;0.00;;;24.00;46.30;;;;;;5052528;28;20199;-58
2023/11/19 09:58:26;;;;;;;0.00;0.00;;;24.00;46.40;;;;;;5070677;28;20218;-56
2023/11/19 10:00:58;;;;;;;0.00;0.00;;;24.00;46.30;;;;;;5062528;28;20191;-50
2023/11/19 10:03:31;;;;;;;0.00;0.00;;;24.00;46.40;;;;;;5061314;28;20282;-59
2023/11/19 10:06:03;;;;;;;0.00;0.00;;;24.00;46.40;;;;;;5062516;28;20254;-56
2023/11/19 10:08:34;;;;;;;0.00;0.00;;;24.00;46.40;;;;;;5052521;28;20238;-57
2023/11/19 10:11:05;;;;;;;0.00;0.00;;;24.00;46.30;;;;;;5059499;28;20210;-58
2023/11/19 10:13:37;;;;;;;0.00;0.00;;;24.00;46.30;;;;;;5073465;28;20554;-57
2023/11/19 10:16:11;;;;;;;0.00;0.00;;;23.90;46.30;;;;;;5072438;28;20612;-50
2023/11/19 10:18:48;;;;;;;0.00;0.00;;;23.90;46.30;;;;;;5052590;28;20223;-59
2023/11/19 10:21:20;;;;;;;0.00;0.00;;;23.90;46.40;;;;;;5052679;28;20203;-58
2023/11/19 10:23:54;;;;;;;0.00;0.00;;;23.80;46.30;;;;;;5052904;28;20286;-56
2023/11/19 10:26:25;;;;;;;0.00;0.00;;;23.90;46.40;;;;;;5053181;28;20321;-58
2023/11/19 10:28:57;;;;;;;0.00;0.00;;;23.80;46.40;;;;;;5053864;28;20223;-59
2023/11/19 10:31:28;;;;;;;0.00;0.00;;;23.80;46.40;;;;;;5067827;28;20194;-57
2023/11/19 10:34:01;;;;;;;0.03;0.03;;;23.80;46.40;;;;;;5073095;28;20286;-56
2023/11/19 10:36:43;;;;;;;0.00;0.00;;;23.80;46.40;;;;;;5060680;28;20203;-59
2023/11/19 10:39:14;;;;;;;0.00;0.00;;;23.80;46.50;;;;;;5052405;28;20268;-56
2023/11/19 10:41:44;;;;;;;0.00;0.00;;;23.80;46.50;;;;;;5063507;28;20210;-57
2023/11/19 10:44:33;;;;;;;0.00;0.00;;;23.70;46.40;;;;;;5072879;28;20191;-58
2023/11/19 10:47:04;;;;;;;0.00;0.00;;;23.70;46.50;;;;;;5055988;28;20238;-55
2023/11/19 10:49:36;;;;;;;0.00;0.00;;;23.70;46.50;;;;;;5054110;28;21366;-59
2023/11/19 10:52:11;;;;;;;0.00;0.00;;;23.70;46.50;;;;;;5060516;28;20238;-58
2023/11/19 10:54:46;;;;;;;0.00;0.00;;;23.70;46.50;;;;;;5052173;28;20214;-57
2023/11/19 10:57:23;;;;;;;0.00;0.00;;;23.70;46.50;;;;;;5068959;28;20202;-58
2023/11/19 10:59:58;;;;;;;0.00;0.00;;;23.60;46.50;;;;;;5072448;28;20209;-60
2023/11/19 11:02:30;;;;;;;0.00;0.00;;;23.70;46.50;;;;;;5052891;28;20202;-58
2023/11/19 11:05:04;;;;;;;0.00;0.00;;;23.60;46.50;;;;;;5052161;28;20227;-57
2023/11/19 11:07:35;;;;;;;0.00;0.00;;;23.60;46.50;;;;;;5052366;28;20247;-52
2023/11/19 11:10:07;;;;;;;0.00;0.00;;;23.60;46.50;;;;;;5056877;28;20597;-47
2023/11/19 11:12:41;;;;;;;0.00;0.00;;;23.60;46.50;;;;;;5070187;28;20288;-44
2023/11/19 11:15:14;;;;;;;0.00;0.00;;;23.50;46.50;;;;;;5071918;28;20204;-47
2023/11/19 11:17:46;;;;;;;0.00;0.00;;;23.60;46.50;;;;;;5051666;28;20211;-45
2023/11/19 11:20:18;;;;;;;0.00;0.00;;;23.50;46.50;;;;;;5070901;28;20198;-43
2023/11/19 11:22:59;;;;;;;0.00;0.00;;;23.50;46.50;;;;;;5060120;28;20650;-45
2023/11/19 11:25:43;;;;;;;0.10;0.10;;;23.50;46.60;;;;;;5052824;28;20269;-49
2023/11/19 11:28:31;;;;;;;0.00;0.00;;;23.50;46.60;;;;;;5052194;28;20215;-44
2023/11/19 11:31:20;;;;;;;0.00;0.00;;;23.40;46.60;;;;;;5052536;28;20195;-43
2023/11/19 11:34:27;;;;;;;0.00;0.00;;;23.50;46.60;;;;;;5052312;28;20191;-43
2023/11/19 11:37:10;;;;;;;0.00;0.00;;;23.40;46.60;;;;;;5063800;28;20183;-46
2023/11/19 11:39:42;;;;;;;0.00;0.00;;;23.40;46.60;;;;;;5061498;28;20418;-46
2023/11/19 11:42:37;;;;;;;0.00;0.00;;;23.40;46.60;;;;;;5060433;28;20278;-49
2023/11/19 11:45:12;;;;;;;0.00;0.00;;;23.40;46.70;;;;;;5062198;28;20230;-44
2023/11/19 11:48:15;;;;;;;0.00;0.00;;;23.40;46.60;;;;;;5061363;28;20211;-47
2023/11/19 11:50:56;;;;;;;0.00;0.00;;;23.30;46.60;;;;;;5033158;28;20635;-44
2023/11/19 11:53:29;;;;;;;0.00;0.00;;;23.40;46.60;;;;;;5062212;28;20187;-50
2023/11/19 11:56:03;;;;;;;0.00;0.00;;;23.40;46.60;;;;;;5061556;28;20714;-52
2023/11/19 11:58:36;;;;;;;0.00;0.00;;;23.30;46.60;;;;;;5060232;28;20210;-48
2023/11/19 12:01:08;;;;;;;0.00;0.00;;;23.30;46.60;;;;;;5061022;28;20194;-52
2023/11/19 12:03:39;;;;;;;0.00;0.00;;;23.30;46.60;;;;;;5060994;28;20188;-54
2023/11/19 12:06:10;;;;;;;0.00;0.00;;;23.30;46.70;;;;;;5060476;28;20219;-49
2023/11/19 12:08:43;;;;;;;0.00;0.00;;;23.30;46.70;;;;;;5061153;28;20744;-52
2023/11/19 12:11:14;;;;;;;0.00;0.00;;;23.30;46.70;;;;;;5059630;28;20655;-51
2023/11/19 12:14:02;;;;;;;0.05;0.05;;;23.20;46.70;;;;;;5061448;28;20320;-49
2023/11/19 12:16:37;;;;;;;0.00;0.00;;;23.30;46.70;;;;;;5061225;28;20219;-49
2023/11/19 12:19:08;;;;;;;0.00;0.00;;;23.30;46.70;;;;;;5062000;28;20593;-58
2023/11/19 12:21:38;;;;;;;0.00;0.00;;;23.20;46.70;;;;;;5060459;28;20192;-51
2023/11/19 12:24:14;;;;;;;0.00;0.00;;;23.20;46.70;;;;;;5060524;28;20261;-52
2023/11/19 12:26:45;;;;;;;0.00;0.00;;;23.20;46.80;;;;;;5060520;28;20685;-51
2023/11/19 12:29:15;;;;;;;0.00;0.00;;;23.20;46.70;;;;;;5059708;28;20207;-54
2023/11/19 12:31:56;;;;;;;0.00;0.00;;;23.10;46.70;;;;;;5059871;28;20190;-58
2023/11/19 12:34:26;;;;;;;0.00;0.00;;;23.10;46.70;;;;;;5058816;28;20191;-54
2023/11/19 12:36:57;;;;;;;0.00;0.00;;;23.10;46.60;;;;;;5050361;28;20204;-50
2023/11/19 12:39:33;;;;;;;0.00;0.00;;;23.10;46.60;;;;;;5051012;28;20195;-49
2023/11/19 12:42:04;;;;;;;0.00;0.00;;;23.10;46.60;;;;;;5064674;28;20194;-53
2023/11/19 12:44:35;;;;;;;0.00;0.00;;;23.10;46.70;;;;;;5070577;28;20191;-55
2023/11/19 12:47:08;;;;;;;0.00;0.00;;;23.10;46.70;;;;;;5068434;28;20215;-58
2023/11/19 12:49:38;;;;;;;0.00;0.00;;;23.10;46.60;;;;;;5050910;28;20257;-58
2023/11/19 12:52:16;;;;;;;0.00;0.00;;;23.10;46.70;;;;;;5051146;28;20682;-56
2023/11/19 12:54:49;;;;;;;0.00;0.00;;;23.10;46.70;;;;;;5051072;28;20602;-56
2023/11/19 12:57:20;;;;;;;0.00;0.00;;;23.10;46.70;;;;;;5050772;28;20261;-55
2023/11/19 13:00:00;;;;;;;0.00;0.00;;;23.10;46.80;;;;;;5053142;28;20187;-57
2023/11/19 13:02:48;;;;;;;0.00;0.00;;;23.00;46.80;;;;;;5050953;28;20252;-56
2023/11/19 13:05:31;;;;;;;0.00;0.00;;;23.00;46.80;;;;;;5050863;28;20199;-55
2023/11/19 13:08:05;;;;;;;0.00;0.00;;;23.00;46.70;;;;;;5050454;28;20215;-56
2023/11/19 13:10:53;;;;;;;0.00;0.00;;;23.00;46.80;;;;;;5052399;28;20643;-57
2023/11/19 13:13:24;;;;;;;0.08;0.08;;;23.00;46.80;;;;;;5071156;28;20202;-58
2023/11/19 13:15:55;;;;;;;0.00;0.00;;;23.00;46.80;;;;;;5070627;28;20268;-51